Time;durP1;ratioP1;P1;durP2;ratioP2;P2;SDS_P1;SDS_P2;PMS_P1;PMS_P2;Temp;Humidity;BMP_temperature;BMP_pressure;BME280_temperature;BME280_humidity;BME280_pressure;Samples;Min_cycle;Max_cycle;Signal;HPM_P1;HPM_P2
2021/12/20 00:02:21;;;;;;;15.40;3.55;;;;;;;5.43;86.54;102718.25;4981739;28;20080;-88
2021/12/20 00:04:51;;;;;;;10.85;3.28;;;;;;;5.38;86.62;102712.97;4979293;28;20035;-90
2021/12/20 00:07:18;;;;;;;11.20;3.45;;;;;;;5.39;86.72;102724.16;4961873;28;21933;-90
2021/12/20 00:09:44;;;;;;;11.35;3.30;;;;;;;5.42;86.76;102711.34;4981326;28;20030;-93
2021/12/20 00:12:09;;;;;;;9.75;3.15;;;;;;;5.40;86.23;102715.59;4961360;28;20034;-93
2021/12/20 00:14:34;;;;;;;12.23;3.00;;;;;;;5.43;86.42;102720.84;4981333;28;20022;-90
2021/12/20 00:17:00;;;;;;;12.82;3.47;;;;;;;5.43;86.43;102719.13;4981027;28;20030;-90
2021/12/20 00:19:26;;;;;;;11.20;3.20;;;;;;;5.43;86.27;102718.25;4982531;28;20030;-94
2021/12/20 00:21:51;;;;;;;10.65;3.20;;;;;;;5.42;86.42;102708.78;4981895;28;21415;-91
2021/12/20 00:24:20;;;;;;;10.55;2.85;;;;;;;5.41;86.75;102712.19;4981477;28;20823;-89
2021/12/20 00:26:45;;;;;;;14.15;3.13;;;;;;;5.41;86.58;102710.47;4980752;28;20096;-89
2021/12/20 00:29:10;;;;;;;10.65;3.00;;;;;;;5.42;86.59;102704.47;4981956;28;20487;-90
2021/12/20 00:31:36;;;;;;;9.60;3.20;;;;;;;5.41;86.78;102712.19;4981395;28;20084;-90
2021/12/20 00:34:01;;;;;;;12.57;3.03;;;;;;;5.37;85.92;102712.94;4962415;28;20204;-90
2021/12/20 00:36:29;;;;;;;14.10;3.20;;;;;;;5.38;86.42;102707.78;4980601;28;20499;-90
2021/12/20 00:41:38;;;;;;;10.65;2.88;;;;;;;5.38;85.85;102706.94;4981117;28;20037;-90
2021/12/20 00:44:04;;;;;;;15.02;3.53;;;;;;;5.34;85.53;102707.69;4983330;28;20034;-90
2021/12/20 00:46:29;;;;;;;13.68;3.35;;;;;;;5.28;85.98;102692.91;4963328;28;20117;-91
2021/12/20 00:48:54;;;;;;;14.10;3.17;;;;;;;5.35;85.68;102712.00;4978411;28;20035;-91
2021/12/20 00:51:20;;;;;;;11.55;2.92;;;;;;;5.30;85.90;102702.44;4980298;28;20030;-91
2021/12/20 00:53:45;;;;;;;14.85;3.70;;;;;;;5.31;85.87;102695.59;4983312;28;20054;-91
2021/12/20 00:56:10;;;;;;;12.93;3.38;;;;;;;5.32;85.45;102698.19;4980836;28;20049;-90
2021/12/20 00:58:35;;;;;;;15.18;3.40;;;;;;;5.31;85.68;102706.75;4979096;28;20058;-90
2021/12/20 01:01:02;;;;;;;14.48;2.95;;;;;;;5.28;85.84;102713.56;4978901;28;20097;-91
2021/12/20 01:03:30;;;;;;;11.73;2.88;;;;;;;5.28;85.39;102705.81;4978598;28;20031;-91
2021/12/20 01:05:56;;;;;;;14.43;2.85;;;;;;;5.27;85.21;102704.97;4980401;28;20117;-90
2021/12/20 01:08:22;;;;;;;14.10;2.90;;;;;;;5.27;85.07;102709.22;4980834;28;20488;-91
2021/12/20 01:10:52;;;;;;;13.75;2.63;;;;;;;5.28;85.08;102710.97;4983343;28;20101;-90
2021/12/20 01:13:21;;;;;;;13.07;2.92;;;;;;;5.27;84.79;102714.38;4963069;28;20483;-91
2021/12/20 01:15:50;;;;;;;14.95;2.90;;;;;;;5.23;84.78;102705.69;4979831;28;20114;-90
2021/12/20 01:18:17;;;;;;;15.18;2.70;;;;;;;5.23;83.03;102703.13;4963073;28;20479;-90
2021/12/20 01:20:43;;;;;;;16.88;2.83;;;;;;;5.22;82.61;102691.06;4978210;28;20035;-91
2021/12/20 01:23:10;;;;;;;20.67;3.83;;;;;;;5.24;82.89;102699.72;4981096;28;20043;-91
2021/12/20 01:25:36;;;;;;;13.52;2.80;;;;;;;5.23;82.78;102695.38;4977283;28;20030;-91
2021/12/20 01:28:01;;;;;;;14.32;2.88;;;;;;;5.27;83.08;102704.97;4960715;28;20118;-91
2021/12/20 01:30:27;;;;;;;19.38;3.20;;;;;;;5.26;83.01;102703.22;4978540;28;20035;-91
2021/12/20 01:32:54;;;;;;;16.42;3.20;;;;;;;5.27;83.17;102712.69;4979454;28;20423;-91
2021/12/20 01:35:23;;;;;;;20.50;3.00;;;;;;;5.25;82.73;102703.16;4979220;28;20061;-90
2021/12/20 01:37:48;;;;;;;16.90;3.30;;;;;;;5.23;82.87;102708.28;4980218;28;20117;-90
2021/12/20 01:40:15;;;;;;;15.27;2.90;;;;;;;5.23;83.19;102694.50;4978216;28;20088;-90
2021/12/20 01:42:42;;;;;;;17.55;2.80;;;;;;;5.23;83.18;102700.53;4978507;28;20029;-90
2021/12/20 01:45:22;;;;;;;13.15;2.80;;;;;;;5.23;82.97;102700.53;4977430;28;20113;-90
2021/12/20 01:47:51;;;;;;;17.95;3.15;;;;;;;5.22;82.74;102701.38;4977470;28;20034;-91
2021/12/20 01:50:24;;;;;;;17.38;3.13;;;;;;;5.21;81.08;102698.78;4979424;28;20046;-90
2021/12/20 01:52:51;;;;;;;16.67;2.90;;;;;;;5.23;83.06;102700.53;4961590;28;20606;-91
2021/12/20 01:55:20;;;;;;;20.48;3.10;;;;;;;5.22;82.11;102695.31;4978193;28;20030;-90
2021/12/20 01:57:47;;;;;;;18.35;3.10;;;;;;;5.18;81.67;102694.38;4974584;28;20046;-91
2021/12/20 02:00:16;;;;;;;18.35;2.72;;;;;;;5.18;81.10;102701.25;4977719;28;20492;-91
2021/12/20 02:02:43;;;;;;;20.85;3.13;;;;;;;5.19;82.39;102695.28;4978296;28;20037;-90
2021/12/20 02:05:21;;;;;;;18.13;3.40;;;;;;;5.18;82.73;102690.94;4960093;28;20085;-90
2021/12/20 02:10:15;;;;;;;24.33;4.35;;;;;;;5.14;82.46;102692.53;4978948;28;20030;-91
2021/12/20 02:12:40;;;;;;;17.45;2.92;;;;;;;5.12;82.36;102694.22;4977630;28;20033;-90
2021/12/20 02:15:06;;;;;;;21.17;3.20;;;;;;;5.12;82.35;102694.22;4977219;28;20037;-90
2021/12/20 02:17:31;;;;;;;21.35;3.47;;;;;;;5.06;82.55;102694.06;4977552;28;20034;-91
2021/12/20 02:20:03;;;;;;;19.92;2.83;;;;;;;5.06;82.13;102692.34;4979277;28;20392;-91
2021/12/20 02:22:29;;;;;;;18.95;3.45;;;;;;;5.08;82.35;102694.97;4976568;28;20030;-90
2021/12/20 02:24:54;;;;;;;19.25;2.80;;;;;;;5.05;82.56;102692.31;4977508;28;20081;-90
2021/12/20 02:27:22;;;;;;;19.35;2.95;;;;;;;5.04;82.57;102703.44;4977944;28;20051;-90
2021/12/20 02:30:03;;;;;;;19.17;3.00;;;;;;;5.04;83.01;102696.56;4976071;28;20027;-91
2021/12/20 02:37:56;;;;;;;17.42;3.03;;;;;;;5.04;81.17;102685.41;4978036;28;20046;-90
2021/12/20 02:40:22;;;;;;;19.85;2.95;;;;;;;5.03;81.48;102684.53;4957245;28;20031;-89
2021/12/20 02:42:49;;;;;;;17.13;2.83;;;;;;;5.09;82.17;102687.25;4982169;28;20034;-90
2021/12/20 02:45:16;;;;;;;19.63;3.10;;;;;;;5.09;80.92;102689.84;4977980;28;20185;-90
2021/12/20 02:47:46;;;;;;;15.38;2.80;;;;;;;5.10;80.84;102683.00;4958484;28;20026;-90
2021/12/20 02:50:14;;;;;;;19.38;3.05;;;;;;;5.08;81.27;102684.66;4979804;28;20081;-90
2021/12/20 02:52:40;;;;;;;17.57;2.90;;;;;;;5.08;81.23;102684.66;4977671;28;20475;-91
2021/12/20 02:55:07;;;;;;;16.88;3.05;;;;;;;5.10;81.17;102693.31;4975753;28;20029;-91
2021/12/20 02:57:38;;;;;;;19.40;2.75;;;;;;;5.09;81.53;102679.53;4976422;28;20090;-90
2021/12/20 03:00:06;;;;;;;20.92;3.03;;;;;;;5.09;81.67;102688.97;4978319;28;20096;-91
2021/12/20 03:02:32;;;;;;;16.00;2.77;;;;;;;5.07;81.53;102680.31;4975894;28;20644;-91
2021/12/20 03:04:57;;;;;;;20.50;3.20;;;;;;;5.03;81.19;102678.50;4973152;28;20027;-90
2021/12/20 03:07:26;;;;;;;20.40;3.35;;;;;;;5.03;81.11;102673.34;4978139;28;20030;-91
2021/12/20 03:09:58;;;;;;;17.90;3.05;;;;;;;5.01;80.94;102689.63;4957519;28;20113;-90
2021/12/20 03:12:26;;;;;;;;;;;;;;;5.13;81.91;102683.94;4976705;28;20026;-91
2021/12/20 03:15:00;;;;;;;19.95;3.42;;;;;;;5.01;80.42;102684.47;4961673;28;19997;-91
2021/12/20 03:17:25;;;;;;;22.63;3.80;;;;;;;4.99;80.01;102678.41;4974455;28;20090;-90
2021/12/20 03:19:51;;;;;;;18.63;2.83;;;;;;;4.98;80.37;102679.22;4976958;28;20023;-90
2021/12/20 03:22:17;;;;;;;20.80;3.17;;;;;;;4.99;80.11;102680.97;4975969;28;20459;-90
2021/12/20 03:24:42;;;;;;;21.08;3.95;;;;;;;4.95;80.59;102686.03;4977000;28;20018;-91
2021/12/20 03:27:08;;;;;;;25.33;3.65;;;;;;;4.97;80.48;102686.94;4980539;28;20026;-91
2021/12/20 03:29:33;;;;;;;20.52;3.17;;;;;;;4.93;80.93;102678.25;4974862;28;20030;-91
2021/12/20 03:31:59;;;;;;;21.13;3.20;;;;;;;4.93;80.82;102679.94;4962307;28;20435;-91
2021/12/20 03:34:24;;;;;;;16.75;2.80;;;;;;;4.97;80.84;102679.19;4976709;28;20550;-91
2021/12/20 03:36:50;;;;;;;23.73;3.40;;;;;;;4.92;80.18;102673.94;4979306;28;20031;-90
2021/12/20 03:39:15;;;;;;;20.45;3.28;;;;;;;4.94;79.76;102681.69;4960830;28;20061;-91
2021/12/20 03:41:41;;;;;;;21.42;3.45;;;;;;;4.95;79.75;102686.88;4974993;28;20038;-91
2021/12/20 03:44:07;;;;;;;17.95;3.40;;;;;;;4.97;80.35;102687.81;4977019;28;20029;-91
2021/12/20 03:46:34;;;;;;;20.42;3.33;;;;;;;4.96;81.06;102680.03;4973900;28;20028;-90
2021/12/20 03:48:59;;;;;;;22.10;3.13;;;;;;;4.96;78.59;102678.31;4974895;28;20030;-90
2021/12/20 03:51:25;;;;;;;18.83;3.22;;;;;;;4.96;78.67;102680.03;4975394;28;20033;-90
2021/12/20 03:53:50;;;;;;;19.53;3.27;;;;;;;4.95;78.91;102680.84;4974370;28;20041;-90
2021/12/20 03:56:15;;;;;;;19.73;3.37;;;;;;;4.95;78.92;102675.69;4976109;28;20026;-91
2021/12/20 03:58:41;;;;;;;19.15;3.30;;;;;;;4.94;79.52;102684.28;4973716;28;20097;-90
2021/12/20 04:01:12;;;;;;;23.05;3.35;;;;;;;4.95;79.67;102679.13;4978057;28;20077;-90
2021/12/20 04:03:38;;;;;;;16.00;2.78;;;;;;;4.97;79.21;102685.22;4978169;28;20074;-90
2021/12/20 04:06:06;;;;;;;19.85;2.83;;;;;;;4.95;78.62;102681.72;4977220;28;20129;-90
2021/12/20 04:08:32;;;;;;;16.00;2.70;;;;;;;4.96;79.50;102678.31;4961070;28;20022;-90
2021/12/20 04:10:58;;;;;;;21.13;3.67;;;;;;;4.96;79.27;102680.03;4975052;28;20052;-90
2021/12/20 04:13:25;;;;;;;17.40;3.58;;;;;;;4.94;79.74;102677.41;4975603;28;20070;-90
2021/12/20 04:15:51;;;;;;;18.83;3.20;;;;;;;4.94;80.05;102682.59;4976277;28;20033;-90
2021/12/20 04:18:16;;;;;;;20.30;3.28;;;;;;;4.93;80.26;102672.22;4978747;28;20369;-90
2021/12/20 04:20:41;;;;;;;19.80;3.53;;;;;;;4.94;78.58;102671.38;4980077;28;20070;-90
2021/12/20 04:23:07;;;;;;;19.33;3.10;;;;;;;4.93;77.78;102680.84;4980620;28;20395;-90
2021/12/20 04:25:32;;;;;;;23.40;3.30;;;;;;;4.95;76.58;102675.69;4979683;28;20054;-90
2021/12/20 04:27:57;;;;;;;20.53;3.20;;;;;;;4.92;76.13;102679.09;4979509;28;20241;-90
2021/12/20 04:30:23;;;;;;;20.63;3.22;;;;;;;4.91;76.24;102674.75;4979949;28;20030;-90
2021/12/20 04:32:48;;;;;;;19.40;3.15;;;;;;;4.90;76.85;102682.44;4980524;28;20034;-90
2021/12/20 04:35:15;;;;;;;18.03;3.10;;;;;;;4.92;77.31;102676.50;4977366;28;20169;-91
2021/12/20 04:37:43;;;;;;;19.90;3.17;;;;;;;4.92;79.12;102679.09;4979392;28;20443;-90
2021/12/20 04:40:14;;;;;;;21.03;2.93;;;;;;;4.91;77.83;102676.44;4959839;28;20057;-91
2021/12/20 04:42:40;;;;;;;21.27;3.60;;;;;;;4.95;77.72;102673.97;4980240;28;20033;-90
2021/12/20 04:45:05;;;;;;;16.90;2.70;;;;;;;4.95;77.65;102679.13;4980683;28;20034;-91
2021/12/20 04:47:31;;;;;;;18.90;3.00;;;;;;;4.86;77.89;102672.06;4976497;28;20085;-90
2021/12/20 04:49:56;;;;;;;21.45;3.40;;;;;;;4.95;77.87;102679.13;4979503;28;20049;-91
2021/12/20 04:52:23;;;;;;;19.70;3.37;;;;;;;4.96;78.21;102678.31;4978099;28;20031;-90
2021/12/20 04:54:49;;;;;;;20.77;3.20;;;;;;;4.92;78.87;102681.66;4960889;28;20014;-90
2021/12/20 04:57:14;;;;;;;21.67;3.87;;;;;;;4.95;78.86;102680.84;4981193;28;20430;-90
2021/12/20 04:59:39;;;;;;;19.70;3.30;;;;;;;4.91;79.15;102679.91;4977695;28;20030;-91
2021/12/20 05:02:04;;;;;;;17.53;3.20;;;;;;;4.97;80.10;102680.06;4978273;28;20039;-90
2021/12/20 05:04:30;;;;;;;23.75;3.35;;;;;;;4.96;79.31;102682.59;4979697;28;20027;-91
2021/12/20 05:06:55;;;;;;;24.73;3.78;;;;;;;4.94;78.09;102685.16;4979103;28;20031;-90
2021/12/20 05:09:21;;;;;;;19.80;3.40;;;;;;;4.97;79.42;102681.78;4979214;28;20042;-90
2021/12/20 05:12:00;;;;;;;17.33;3.00;;;;;;;4.96;79.77;102687.78;4979225;28;20471;-90
2021/12/20 05:14:26;;;;;;;19.65;3.35;;;;;;;4.96;79.57;102688.63;4980004;28;20030;-91
2021/12/20 05:16:51;;;;;;;24.17;3.55;;;;;;;4.94;79.41;102695.47;4960856;28;20031;-91
2021/12/20 05:19:16;;;;;;;18.38;2.75;;;;;;;4.93;79.55;102688.56;4976422;28;20046;-90
2021/12/20 05:21:42;;;;;;;21.65;2.92;;;;;;;4.93;79.22;102688.56;4975171;28;20388;-90
2021/12/20 05:24:07;;;;;;;25.70;3.75;;;;;;;4.90;78.41;102688.47;4975502;28;20098;-91
2021/12/20 05:26:32;;;;;;;24.35;3.50;;;;;;;4.86;78.76;102684.06;4978769;28;20101;-90
2021/12/20 05:28:58;;;;;;;21.75;3.47;;;;;;;4.86;77.87;102691.78;4978491;28;20026;-90
2021/12/20 05:31:23;;;;;;;22.10;3.43;;;;;;;4.83;78.46;102689.13;4976462;28;20113;-90
2021/12/20 05:33:48;;;;;;;20.38;3.25;;;;;;;4.80;77.33;102696.78;4981222;28;20554;-90
2021/12/20 05:36:14;;;;;;;22.27;3.42;;;;;;;4.82;77.82;102692.53;4975067;28;20027;-91
2021/12/20 05:38:39;;;;;;;22.20;3.28;;;;;;;4.78;77.39;102696.75;4977917;28;20550;-90
2021/12/20 05:41:04;;;;;;;20.63;3.57;;;;;;;4.78;77.36;102695.88;4977357;28;20026;-90
2021/12/20 05:43:29;;;;;;;19.77;3.00;;;;;;;4.74;78.31;102692.31;4975093;28;20026;-90
2021/12/20 05:45:55;;;;;;;22.38;3.60;;;;;;;4.68;78.26;102687.00;4975187;28;20022;-90
2021/12/20 05:48:20;;;;;;;23.20;3.30;;;;;;;4.67;78.23;102686.13;4975875;28;20903;-91
2021/12/20 05:50:45;;;;;;;19.73;3.08;;;;;;;4.69;78.35;102699.06;4978523;28;20026;-90
2021/12/20 05:53:11;;;;;;;19.83;3.08;;;;;;;4.69;78.27;102693.91;4978270;28;20500;-90
2021/12/20 05:55:36;;;;;;;21.25;3.22;;;;;;;4.66;78.15;102697.25;4977990;28;20483;-90
2021/12/20 05:58:01;;;;;;;22.73;3.50;;;;;;;4.64;77.28;102700.63;4980021;28;20526;-90
2021/12/20 06:00:27;;;;;;;18.85;2.70;;;;;;;4.63;75.16;102694.59;4976885;28;20030;-90
2021/12/20 06:02:52;;;;;;;17.02;2.60;;;;;;;4.62;75.20;102695.41;4976525;28;20030;-91
2021/12/20 06:05:19;;;;;;;18.53;3.23;;;;;;;4.60;75.96;102689.38;4974860;28;20030;-90
2021/12/20 06:07:44;;;;;;;19.27;3.33;;;;;;;4.58;76.25;102691.03;4976793;28;20023;-91
2021/12/20 06:10:13;;;;;;;16.42;2.97;;;;;;;4.56;76.30;102696.13;4987932;28;20038;-90
2021/12/20 06:12:39;;;;;;;21.03;3.33;;;;;;;4.57;76.67;102694.44;4986183;28;20061;-91
2021/12/20 06:15:06;;;;;;;21.60;3.27;;;;;;;4.57;76.69;102704.75;4987096;28;20022;-90
2021/12/20 06:17:31;;;;;;;21.45;3.17;;;;;;;4.58;76.78;102695.28;4984248;28;20539;-91
2021/12/20 06:19:57;;;;;;;20.07;3.00;;;;;;;4.61;77.72;102703.13;4968050;28;20130;-90
2021/12/20 06:22:22;;;;;;;21.80;3.08;;;;;;;4.60;77.43;102699.69;4985581;28;20121;-91
2021/12/20 06:24:47;;;;;;;17.25;2.80;;;;;;;4.60;77.38;102704.84;4975561;28;20361;-91
2021/12/20 06:27:12;;;;;;;20.37;3.03;;;;;;;4.64;76.86;102703.22;4973288;28;20034;-89
2021/12/20 06:29:38;;;;;;;21.43;3.27;;;;;;;4.65;76.00;102710.13;4978774;28;20058;-90
2021/12/20 06:32:03;;;;;;;20.33;3.10;;;;;;;4.63;76.62;102704.91;4984726;28;21379;-91
2021/12/20 06:34:29;;;;;;;20.97;2.83;;;;;;;4.65;77.46;102702.38;4985968;28;20373;-91
2021/12/20 06:36:54;;;;;;;22.60;3.50;;;;;;;4.65;76.34;102707.53;4963272;28;20064;-91
2021/12/20 06:39:20;;;;;;;20.93;3.50;;;;;;;4.67;76.11;102699.00;4987428;28;20186;-91
2021/12/20 06:41:45;;;;;;;16.77;2.77;;;;;;;4.67;75.66;102706.75;4990448;28;20087;-91
2021/12/20 06:44:11;;;;;;;18.95;3.20;;;;;;;4.68;75.06;102708.50;4982713;28;20026;-91
2021/12/20 06:46:40;;;;;;;18.13;2.80;;;;;;;4.66;74.97;102717.88;4984749;28;20487;-90
2021/12/20 06:49:08;;;;;;;19.87;3.07;;;;;;;4.66;75.59;102710.16;4979054;28;20344;-91
2021/12/20 06:51:38;;;;;;;20.87;3.57;;;;;;;4.62;74.79;102708.31;4980441;28;20057;-91
2021/12/20 06:54:03;;;;;;;15.93;2.73;;;;;;;4.62;73.99;102720.34;4980045;28;20077;-91
2021/12/20 06:56:28;;;;;;;23.47;3.10;;;;;;;4.62;73.96;102725.50;4975123;28;20022;-90
2021/12/20 06:58:54;;;;;;;19.63;3.20;;;;;;;4.60;73.63;102725.47;4973858;28;20082;-91
2021/12/20 07:01:20;;;;;;;18.30;2.97;;;;;;;4.56;74.61;102724.47;4974601;28;20049;-90
2021/12/20 07:03:46;;;;;;;23.37;3.23;;;;;;;4.60;75.25;102729.72;4973702;28;20101;-90
2021/12/20 07:06:11;;;;;;;19.83;2.90;;;;;;;4.60;74.60;102730.63;4975089;28;20480;-90
2021/12/20 07:08:36;;;;;;;21.93;3.57;;;;;;;4.62;73.52;102738.38;4973480;28;20052;-90
2021/12/20 07:11:02;;;;;;;21.60;2.73;;;;;;;4.61;73.28;102732.34;4974861;28;20025;-90
2021/12/20 07:13:27;;;;;;;15.30;2.83;;;;;;;4.61;73.50;102731.47;4973545;28;20033;-90
2021/12/20 07:15:52;;;;;;;17.43;2.90;;;;;;;4.61;73.96;102722.03;4973009;28;20030;-90
2021/12/20 07:18:18;;;;;;;20.00;2.93;;;;;;;4.61;74.63;102737.50;4973362;28;20619;-90
2021/12/20 07:20:43;;;;;;;19.27;2.67;;;;;;;4.60;74.09;102738.34;4975511;28;20030;-90
2021/12/20 07:23:08;;;;;;;19.30;2.97;;;;;;;4.62;74.53;102746.97;4972763;28;20050;-90
2021/12/20 07:25:33;;;;;;;17.20;2.63;;;;;;;4.60;74.84;102735.75;4973675;28;20025;-90
2021/12/20 07:27:59;;;;;;;18.30;2.97;;;;;;;4.61;75.59;102734.91;4974718;28;20082;-90
2021/12/20 07:30:24;;;;;;;20.07;3.43;;;;;;;4.60;75.42;102743.50;4974938;28;20034;-90
2021/12/20 07:32:49;;;;;;;21.67;3.37;;;;;;;4.61;75.01;102741.78;4973395;28;20384;-90
2021/12/20 07:35:15;;;;;;;16.80;2.93;;;;;;;4.62;75.92;102738.38;4974429;28;20069;-90
2021/12/20 07:37:41;;;;;;;17.23;3.07;;;;;;;4.60;75.70;102743.50;4975837;28;20390;-90
2021/12/20 07:40:07;;;;;;;19.43;3.27;;;;;;;4.61;75.36;102737.50;4977031;28;20069;-90
2021/12/20 07:42:33;;;;;;;16.00;2.50;;;;;;;4.58;76.49;102732.25;4972972;28;20034;-90
2021/12/20 07:44:59;;;;;;;16.57;2.60;;;;;;;4.61;76.38;102734.91;4975716;28;20101;-90
2021/12/20 07:47:25;;;;;;;11.77;2.10;;;;;;;4.64;76.74;102742.75;4974700;28;20486;-90
2021/12/20 07:49:50;;;;;;;21.03;3.00;;;;;;;4.65;76.82;102734.19;4980374;28;20054;-90
2021/12/20 07:52:15;;;;;;;15.10;3.00;;;;;;;4.63;77.09;102741.00;4976703;28;20066;-90
2021/12/20 07:54:40;;;;;;;16.38;3.10;;;;;;;4.65;78.03;102744.50;4976760;28;20089;-90
2021/12/20 07:57:06;;;;;;;16.77;3.27;;;;;;;4.64;77.38;102737.59;4977820;28;20089;-90
2021/12/20 07:59:31;;;;;;;16.73;2.97;;;;;;;4.66;77.89;102746.25;4978605;28;20061;-91
2021/12/20 08:01:56;;;;;;;18.20;3.30;;;;;;;4.68;76.05;102739.44;4979301;28;20031;-90
2021/12/20 08:04:22;;;;;;;17.47;2.90;;;;;;;4.70;76.31;102739.47;4981575;28;20368;-91
2021/12/20 08:06:48;;;;;;;14.43;2.70;;;;;;;4.70;77.08;102750.66;4985053;28;20026;-91
2021/12/20 08:09:14;;;;;;;16.43;3.77;;;;;;;4.70;77.14;102750.66;4976966;28;20101;-90
2021/12/20 08:11:40;;;;;;;19.20;3.00;;;;;;;4.68;75.96;102744.59;4979566;28;20506;-90
2021/12/20 08:14:05;;;;;;;17.17;2.87;;;;;;;4.73;76.87;102746.44;4962831;28;20019;-91
2021/12/20 08:16:30;;;;;;;13.93;2.75;;;;;;;4.75;77.75;102748.22;4982585;28;20046;-90
2021/12/20 08:18:56;;;;;;;15.03;2.80;;;;;;;4.75;77.29;102755.94;4976323;28;20065;-91
2021/12/20 08:21:21;;;;;;;16.40;3.07;;;;;;;4.75;77.19;102749.94;4980725;28;20073;-90
2021/12/20 08:23:47;;;;;;;16.90;3.00;;;;;;;4.77;77.26;102758.59;4977638;28;20038;-90
2021/12/20 08:26:13;;;;;;;19.90;2.77;;;;;;;4.77;78.59;102758.59;4982051;28;20034;-91
2021/12/20 08:28:38;;;;;;;17.57;3.00;;;;;;;4.79;77.49;102756.91;4963658;28;20535;-91
2021/12/20 08:31:04;;;;;;;18.63;3.20;;;;;;;4.79;76.71;102756.91;4977887;28;20014;-91
2021/12/20 08:33:32;;;;;;;16.93;3.33;;;;;;;4.79;77.53;102762.97;4984081;28;20059;-90
2021/12/20 08:35:58;;;;;;;15.90;3.30;;;;;;;4.80;77.07;102761.25;4958270;28;20093;-90
2021/12/20 08:38:23;;;;;;;19.30;3.40;;;;;;;4.81;76.94;102766.47;4976395;28;20519;-91
2021/12/20 08:40:48;;;;;;;17.60;3.17;;;;;;;4.80;76.90;102753.50;4957627;28;20046;-90
2021/12/20 08:43:15;;;;;;;17.97;3.57;;;;;;;4.84;77.11;102763.09;4979838;28;20510;-90
2021/12/20 08:45:40;;;;;;;18.23;3.10;;;;;;;4.81;76.88;102755.25;4978411;28;20027;-90
2021/12/20 08:48:06;;;;;;;18.58;3.00;;;;;;;4.83;75.21;102764.81;4980072;28;20026;-90
2021/12/20 08:50:32;;;;;;;19.80;3.30;;;;;;;4.85;76.56;102760.56;4978374;28;20099;-90
2021/12/20 08:52:57;;;;;;;18.30;3.30;;;;;;;4.85;76.99;102762.25;4981542;28;20022;-90
2021/12/20 08:55:23;;;;;;;19.03;3.30;;;;;;;4.86;77.23;102758.84;4962251;28;20046;-90
2021/12/20 08:57:50;;;;;;;23.83;3.60;;;;;;;4.86;76.08;102762.31;4979236;28;20209;-90
2021/12/20 09:00:25;;;;;;;19.73;3.60;;;;;;;4.90;77.18;102763.28;4980116;28;20033;-90
2021/12/20 09:02:50;;;;;;;23.40;3.30;;;;;;;4.96;76.69;102765.16;4976587;28;20031;-90
2021/12/20 09:05:16;;;;;;;15.83;2.87;;;;;;;4.97;77.03;102757.44;4976482;28;20524;-90
2021/12/20 09:07:42;;;;;;;16.77;2.87;;;;;;;5.05;77.71;102760.25;4975213;28;20027;-90
2021/12/20 09:10:13;;;;;;;22.00;3.17;;;;;;;5.08;77.02;102764.63;4979780;28;20033;-91
2021/12/20 09:12:39;;;;;;;22.45;3.47;;;;;;;5.09;77.44;102771.53;4978811;28;20073;-90
2021/12/20 09:15:06;;;;;;;20.80;3.50;;;;;;;5.08;77.89;102767.22;4977506;28;20688;-91
2021/12/20 09:17:32;;;;;;;17.08;2.80;;;;;;;5.06;77.45;102763.72;4981629;28;20015;-90
2021/12/20 09:19:57;;;;;;;21.10;3.20;;;;;;;5.08;77.26;102772.38;4975662;28;20041;-90
2021/12/20 09:22:27;;;;;;;19.47;3.40;;;;;;;5.07;78.28;102762.88;4978042;28;20027;-91
2021/12/20 09:24:53;;;;;;;21.75;4.07;;;;;;;5.17;77.90;102780.34;4977152;28;20034;-90
2021/12/20 09:27:18;;;;;;;19.17;3.83;;;;;;;5.16;78.24;102784.66;4975107;28;20027;-91
2021/12/20 09:29:43;;;;;;;18.50;3.60;;;;;;;5.20;78.48;102779.59;4978144;28;20022;-90
2021/12/20 09:32:09;;;;;;;22.30;3.97;;;;;;;5.17;78.20;102785.50;4961334;28;20027;-90
2021/12/20 09:34:35;;;;;;;22.23;3.70;;;;;;;5.18;78.64;102776.94;4976617;28;20047;-91
2021/12/20 09:37:04;;;;;;;20.92;3.50;;;;;;;5.18;78.50;102776.09;4979751;28;20030;-90
2021/12/20 09:39:31;;;;;;;20.90;3.75;;;;;;;5.23;78.39;102783.13;4977497;28;20567;-90
2021/12/20 09:42:03;;;;;;;18.85;3.88;;;;;;;5.24;78.43;102792.63;4976572;28;20081;-91
2021/12/20 09:44:29;;;;;;;17.83;3.65;;;;;;;5.20;78.56;102788.19;4978091;28;20026;-89
2021/12/20 09:46:55;;;;;;;19.50;4.25;;;;;;;5.27;78.12;102791.81;4978665;28;20078;-90
2021/12/20 09:49:21;;;;;;;19.60;3.60;;;;;;;5.29;78.06;102795.31;4977780;28;20516;-90
2021/12/20 09:51:47;;;;;;;22.65;3.60;;;;;;;5.32;78.47;102792.81;4978054;28;20035;-90
2021/12/20 09:54:12;;;;;;;23.27;3.58;;;;;;;5.31;78.20;102799.69;4980232;28;20071;-89
2021/12/20 09:56:38;;;;;;;21.35;4.57;;;;;;;5.33;77.51;102792.00;4979175;28;20026;-90
2021/12/20 09:59:05;;;;;;;15.55;3.25;;;;;;;5.32;76.82;102796.25;4978175;28;20813;-90
2021/12/20 10:01:31;;;;;;;17.47;3.60;;;;;;;5.32;77.60;102801.44;4977117;28;20034;-90
2021/12/20 10:03:56;;;;;;;21.58;4.50;;;;;;;5.35;77.54;102799.75;4977626;28;20479;-90
2021/12/20 10:06:22;;;;;;;19.15;4.22;;;;;;;5.37;77.86;102803.28;4975593;28;20035;-91
2021/12/20 10:08:52;;;;;;;19.85;4.05;;;;;;;5.37;76.81;102803.28;4977495;28;20026;-90
2021/12/20 10:11:29;;;;;;;19.67;3.95;;;;;;;5.41;77.53;102805.09;4975195;28;20031;-90
2021/12/20 10:14:05;;;;;;;17.60;4.00;;;;;;;5.39;77.00;102794.72;4976120;28;20077;-90
2021/12/20 10:16:30;;;;;;;22.38;3.70;;;;;;;5.40;76.83;102804.22;4962289;28;20075;-91
2021/12/20 10:18:56;;;;;;;18.27;3.80;;;;;;;5.41;76.80;102802.53;4977360;28;20027;-90
2021/12/20 10:21:34;;;;;;;16.73;4.03;;;;;;;5.40;76.54;102800.78;4976866;28;20117;-90
2021/12/20 10:23:59;;;;;;;19.15;3.88;;;;;;;5.41;76.80;102805.97;4976039;28;20041;-90
2021/12/20 10:26:25;;;;;;;17.73;3.42;;;;;;;5.46;76.81;102803.53;4976712;28;20045;-91
2021/12/20 10:28:53;;;;;;;17.48;3.53;;;;;;;5.51;76.80;102801.06;4976072;28;20029;-90
2021/12/20 10:31:21;;;;;;;21.02;3.35;;;;;;;5.56;76.63;102796.88;4977316;28;20057;-91
2021/12/20 10:33:56;;;;;;;21.30;3.70;;;;;;;5.62;76.41;102800.53;4957602;28;20046;-90
2021/12/20 10:36:23;;;;;;;20.48;3.42;;;;;;;5.67;76.69;102803.22;4980274;28;20057;-91
2021/12/20 10:38:57;;;;;;;17.60;3.40;;;;;;;5.68;76.77;102801.50;4977984;28;20471;-91
2021/12/20 10:41:33;;;;;;;20.48;3.42;;;;;;;5.66;76.20;102795.41;4974948;28;20054;-90
2021/12/20 10:44:01;;;;;;;23.95;3.95;;;;;;;5.74;74.86;102804.25;4968794;28;20267;-91
2021/12/20 10:46:31;;;;;;;21.90;3.60;;;;;;;5.78;75.31;102795.78;4978059;28;20111;-90
2021/12/20 10:49:08;;;;;;;15.20;3.33;;;;;;;5.83;75.74;102799.31;4957499;28;20026;-91
2021/12/20 10:51:44;;;;;;;26.45;4.15;;;;;;;5.92;75.65;102799.56;4976312;28;20018;-91
2021/12/20 10:54:14;;;;;;;21.27;3.85;;;;;;;5.96;74.50;102805.69;4981343;28;20023;-90
2021/12/20 10:56:50;;;;;;;17.67;3.22;;;;;;;5.92;74.37;102798.69;4974277;28;20031;-91
2021/12/20 10:59:15;;;;;;;22.33;3.97;;;;;;;5.92;73.77;102798.69;4974264;28;20076;-90
2021/12/20 11:04:34;;;;;;;25.08;3.65;;;;;;;5.82;73.76;102797.56;4974995;28;20065;-90
2021/12/20 11:09:37;;;;;;;20.83;3.35;;;;;;;5.82;73.92;102789.81;4974447;28;20038;-90
2021/12/20 11:12:06;;;;;;;22.08;3.80;;;;;;;5.77;74.22;102794.03;4973888;28;20110;-90
2021/12/20 11:14:40;;;;;;;21.52;3.85;;;;;;;5.76;73.53;102794.84;4972891;28;20023;-90
2021/12/20 11:17:08;;;;;;;21.13;3.72;;;;;;;5.76;73.58;102787.97;4973360;28;20502;-90
2021/12/20 11:19:35;;;;;;;20.05;3.70;;;;;;;5.77;74.10;102786.28;4972597;28;20027;-90
2021/12/20 11:22:08;;;;;;;20.08;3.65;;;;;;;5.79;73.71;102784.59;4973454;28;20050;-90
2021/12/20 11:24:37;;;;;;;21.80;3.85;;;;;;;5.80;73.81;102786.34;4975387;28;20027;-90
2021/12/20 11:27:06;;;;;;;20.95;3.88;;;;;;;5.81;73.79;102782.91;4958140;28;20041;-91
2021/12/20 11:29:32;;;;;;;26.73;3.97;;;;;;;5.84;73.11;102785.56;4976520;28;20026;-90
2021/12/20 11:31:58;;;;;;;27.83;4.32;;;;;;;5.85;73.19;102787.31;4974344;28;20459;-91
2021/12/20 11:34:24;;;;;;;17.98;4.05;;;;;;;5.86;73.26;102778.75;4975832;28;20050;-91
2021/12/20 11:36:50;;;;;;;21.80;3.85;;;;;;;5.87;72.68;102780.50;4980896;28;20026;-91
2021/12/20 11:39:15;;;;;;;21.88;4.32;;;;;;;5.89;73.53;102784.00;4978128;28;20027;-91
2021/12/20 11:41:41;;;;;;;25.33;4.53;;;;;;;5.86;73.53;102775.28;4983769;28;20026;-90